Insider trading report: insider purchases reported on March 7, 2012

This page lists insider stock purchases reported on March 7, 2012. To query the history of insider trading activities (stock purchases, sales, and option exercises) for a particular company, click on the Issuer column. For the most current insider trading transactions see Realtime Insider Trading Report. For insider stock sales reported on this day see insider trading report: insider sales reported on March 7, 2012.

Go to page:  1   2 

Insider stock purchases reported on March 7, 2012 (This report is sorted by stock symbol).
Sort by
Symbol
Company Insider Name   Shares     Price   Sort by
Value($)
Trade
Date
ABR Arbor Realty Trust Inc Lazar Melvin F (Director) 25,000 4.99 124,700 2012-03-06
AHC A. H. Belo Corp Decherd Robert W (Chairman, President & CEO) 35,120 4.67 164,010 2012-03-07
   Decherd Robert W (Chairman, President & CEO) 21,235 4.56 96,831 2012-03-06
   Decherd Robert W (Chairman, President & CEO) 30,645 4.53 138,821 2012-03-05
ASBI Ameriana Bancorp Bosway Michael E (Director) 20 4.80 96 2012-03-07
AVNR Avanir Pharmaceuticals Mathews Charles (Director) 5,000 2.70 13,475 2012-03-06
   Ocampo Christine (Vice President, Finance) 3,000 2.60 7,794 2012-03-06
   Katkin Keith (President and CEO) 10,000 2.61 26,090 2012-03-06
AXIO Tc Power Management Corp. Knight Robert (10% Owner) 50,000 .29 14,499 2012-02-29
AZZ Azz Inc Stricklen Jim (VP BUSINESS & MGMT SYSTEMS) 192 35.69 6,852 2012-03-05
   Pendley Timothy E (Senior VP GALVANIZING) 39 34.91 1,361 2012-03-05
   Kolady Ashok (VP BUSINESS DEVELOPMENT) 270 35.69 9,636 2012-03-05
   Lincoln John Scott (Vice President) 81 34.91 2,827 2012-03-05
   Stovall Bryan Lee (Vice President) 26 35.69 927 2012-03-05
BICL Biocancell Therapeutics Inc. Livnat Avraham 8,199,400 .26 2,131,844 2012-01-24
BKI Buckeye Technologies Inc Virginia Wetherell (Director) 1,000 34.87 34,868 2012-03-05
BLMT Bsb Bancorp, Inc. Mahoney Robert M (President and CEO) 9,100 10.95 99,645 2012-03-06
BTC Community Bankers Acquisition Corp. Dozier Glenn J. (Director) 8,000 1.41 11,280 2012-03-05
BYD Boyd Gaming Corp Thomas Peter M (Director) 2,000 7.54 15,070 2012-03-06
CBRL Cbrl Group Inc Lion Fund, L.p. 47,656 54.84 2,613,216 2012-03-06
   Lion Fund, L.p. 36,200 54.89 1,987,018 2012-03-05
CHMT Chemtura Corp Cooper Alan S. (Director) 10,000 15.31 153,080 2012-03-06
CMOH Commercial Bancshares Inc \oh\ Kinnett Stanley K (Director) 200 19.04 3,808 2012-03-01
   Sisler Lee M (Director) 1,000 19.04 19,040 2012-03-01
CNBKA Century Bancorp Inc Evangelista Paul A (Executive Vice President) 13 40.08 521 2012-03-05
   Sloane Barry R (CEO and President) 26 40.08 1,042 2012-03-05
CREO Green Global Investments, Inc. 1st time Mitchell Donald A (Director) 5,198,670 .12 649,833 2012-03-05
   Huie Allen Tat Yan (President & CEO) 13,662,000 .01 177,606 2012-03-05
CUO Continental Materials Corp Gidwitz Ronald J 700 14.64 10,248 2012-03-05
CVO Cenveo, Inc Burton Robert G Sr (Chairman and CEO) 46,000 4.36 200,790 2012-03-06
CWT California Water Service Group Hill Bonnie Guiton (Director) 2,961 17.98 53,238 2012-03-06
   Meier Linda R (Director) 2,961 17.98 53,238 2012-03-06
   Kropelnicki Martin A (VP, CFO & Treasurer) 4,845 17.98 87,113 2012-03-06
   Guiles Edwin A (Director) 2,961 17.98 53,238 2012-03-06
   Brown Douglas M (Director) 2,961 17.98 53,238 2012-03-06
   Foy Robert W (Director) 1,157 17.98 20,802 2012-03-06
   Magnuson Richard P (Director) 2,961 17.98 53,238 2012-03-06
   Vera George A (Director) 2,961 17.98 53,238 2012-03-06
   Breed Calvin L (Controller) 4,845 17.98 87,113 2012-03-06
   Ekstrom Paul G (VP CS, HR AND IT) 4,845 17.98 87,113 2012-03-06
   Ferraro Francis S (VP, Corp Development) 4,845 17.98 87,113 2012-03-06
   Guzzetta Robert (VP Operations) 4,845 17.98 87,113 2012-03-06
   Mcfarlane Christine L (Chief Admin Officer) 4,845 17.98 87,113 2012-03-06
   Nelson Peter C (President) 21,530 17.98 387,109 2012-03-06
   Rossi Michael J (VP Engineering & Water Quality) 4,845 17.98 87,113 2012-03-06
   Mcghee Lynne P (Corporate Secretary) 4,845 17.98 87,113 2012-03-06
   Smegal Thomas F Iii (VP Reg Affairs) 4,845 17.98 87,113 2012-03-06
   Krummel Thomas M (Director) 2,961 17.98 53,238 2012-03-06
   Snow Lester A (Director) 2,961 17.98 53,238 2012-03-06
DGICA Donegal Group Inc Hess Jack Lee (Director) 1,775 13.71 24,335 2012-03-06
   Hess Jack Lee (Director) 900 12.86 11,574 2012-03-05
DGICB  Donegal Mutual Insurance Co (10% Owner) 8,300 21.00 174,300 2012-03-05
ENV Envestnet, Inc. Sisteron Yves (Director) 5,000 11.74 58,700 2012-03-06
   Sisteron Yves (Director) 4,500 12.55 56,475 2012-03-01
   Sisteron Yves (Director) 1,000 12.20 12,200 2012-03-02
   Sisteron Yves (Director) 4,500 12.84 57,780 2012-02-29
EXE Imergent Inc Mihaylo Steven G (Chief Executive Officer) 35,000 4.00 140,000 2012-03-07
FBMS First Bancshares Inc /ms/ Seidenburg J Douglas 1,000 8.90 8,900 2012-03-07
   Chancellor Michael W 898 9.00 8,082 2012-03-06
FBP First Bancorp /pr/ Rodriguez Perello Jose F (Director) 2,000 3.60 7,200 2012-03-06

Go to page:  1   2